Time;durP1;ratioP1;P1;durP2;ratioP2;P2;SDS_P1;SDS_P2;PMS_P1;PMS_P2;Temp;Humidity;BMP_temperature;BMP_pressure;BME280_temperature;BME280_humidity;BME280_pressure;Samples;Min_cycle;Max_cycle;Signal;HPM_P1;HPM_P2
2022/06/30 00:00:32;;;;;;;7.47;6.37;;;;;;;20.75;76.08;99388.60;1735268;82;21056;-43
2022/06/30 00:02:59;;;;;;;7.62;5.92;;;;;;;20.70;76.25;99382.81;1735098;82;21095;-43
2022/06/30 00:05:28;;;;;;;10.05;6.22;;;;;;;20.72;76.32;99382.55;1735066;82;20926;-43
2022/06/30 00:07:55;;;;;;;7.53;6.20;;;;;;;20.76;76.36;99385.25;1735012;82;21026;-43
2022/06/30 00:10:23;;;;;;;7.10;6.40;;;;;;;20.78;76.32;99389.11;1735138;82;21016;-42
2022/06/30 00:12:50;;;;;;;8.80;6.78;;;;;;;20.77;76.38;99392.28;1735367;82;21607;-43
2022/06/30 00:15:17;;;;;;;8.88;6.35;;;;;;;20.84;76.27;99399.03;1735139;82;21254;-43
2022/06/30 00:17:45;;;;;;;8.08;6.62;;;;;;;20.94;76.03;99403.53;1735221;82;21512;-43
2022/06/30 00:20:12;;;;;;;7.25;6.28;;;;;;;21.04;75.92;99400.36;1734996;82;21104;-43
2022/06/30 00:22:40;;;;;;;8.88;6.95;;;;;;;21.10;75.55;99390.38;1734957;82;21627;-43
2022/06/30 00:25:08;;;;;;;8.93;6.30;;;;;;;21.17;75.24;99396.52;1735110;82;20970;-43
2022/06/30 00:27:37;;;;;;;8.23;6.67;;;;;;;21.22;75.02;99393.86;1735189;82;20974;-43
2022/06/30 00:30:06;;;;;;;8.18;6.35;;;;;;;21.35;74.71;99389.82;1735000;82;21500;-43
2022/06/30 00:32:34;;;;;;;7.50;6.80;;;;;;;21.44;74.17;99400.42;1735200;82;20930;-43
2022/06/30 00:35:02;;;;;;;11.65;7.80;;;;;;;21.47;73.71;99408.42;1734982;82;21611;-43
2022/06/30 00:37:29;;;;;;;7.58;6.80;;;;;;;21.47;73.50;99406.45;1735236;82;21033;-43
2022/06/30 00:39:56;;;;;;;7.75;6.40;;;;;;;21.50;73.36;99393.16;1735216;82;21083;-43
2022/06/30 00:42:23;;;;;;;7.90;6.60;;;;;;;21.57;73.12;99389.45;1734930;82;20973;-43
2022/06/30 00:44:51;;;;;;;8.05;6.67;;;;;;;21.61;72.74;99391.52;1734973;82;21591;-43
2022/06/30 00:47:18;;;;;;;7.95;7.15;;;;;;;21.62;72.44;99399.97;1735005;82;21080;-43
2022/06/30 00:49:45;;;;;;;9.50;7.58;;;;;;;21.63;72.23;99414.72;1735068;82;21006;-43
2022/06/30 00:52:13;;;;;;;7.67;6.97;;;;;;;21.64;72.22;99426.50;1735059;82;21238;-43
2022/06/30 00:54:40;;;;;;;7.42;6.53;;;;;;;21.61;72.24;99426.78;1734918;82;21002;-43
2022/06/30 00:57:07;;;;;;;8.73;7.50;;;;;;;21.68;71.89;99425.84;1735052;82;20934;-43
2022/06/30 00:59:35;;;;;;;9.48;8.15;;;;;;;21.70;71.54;99433.06;1734981;82;21005;-43
2022/06/30 01:02:03;;;;;;;10.00;7.85;;;;;;;21.67;71.49;99431.95;1734869;82;21026;-43
2022/06/30 01:04:33;;;;;;;8.93;8.03;;;;;;;21.63;71.44;99430.50;1735376;82;21108;-43
2022/06/30 01:07:01;;;;;;;9.80;7.83;;;;;;;21.58;71.42;99428.25;1734953;82;21049;-43
2022/06/30 01:15:02;;;;;;;12.47;7.97;;;;;;;21.58;71.30;99429.03;1734913;82;20973;-42
2022/06/30 01:17:30;;;;;;;10.60;8.45;;;;;;;21.54;71.36;99417.92;1735048;82;21850;-43
2022/06/30 01:19:57;;;;;;;9.53;8.53;;;;;;;21.51;71.44;99416.00;1734967;82;20974;-43
2022/06/30 01:22:25;;;;;;;10.80;8.30;;;;;;;21.52;71.26;99407.91;1735207;82;21469;-43
2022/06/30 01:24:52;;;;;;;8.95;8.03;;;;;;;21.53;71.22;99419.13;1735084;82;21029;-43
2022/06/30 01:27:19;;;;;;;9.48;8.58;;;;;;;21.57;71.17;99418.42;1735270;82;20930;-43
2022/06/30 01:29:47;;;;;;;10.78;9.00;;;;;;;21.55;71.15;99420.83;1735215;82;21943;-43
2022/06/30 01:32:15;;;;;;;11.40;9.98;;;;;;;21.51;71.31;99409.89;1735025;82;20907;-43
2022/06/30 01:34:42;;;;;;;11.28;9.28;;;;;;;21.51;71.20;99406.34;1740520;82;21098;-43
2022/06/30 01:37:10;;;;;;;12.70;9.93;;;;;;;21.47;71.28;99398.17;1741816;82;20967;-43
2022/06/30 01:39:38;;;;;;;12.45;10.80;;;;;;;21.47;71.33;99395.41;1742127;82;21011;-43
2022/06/30 01:42:05;;;;;;;15.18;11.22;;;;;;;21.48;71.36;99401.70;1741775;82;21214;-43
2022/06/30 01:44:32;;;;;;;13.95;12.65;;;;;;;21.48;71.49;99412.14;1742132;82;20979;-43
2022/06/30 01:47:01;;;;;;;13.88;12.53;;;;;;;21.47;71.54;99412.56;1741606;82;21574;-43
2022/06/30 01:49:28;;;;;;;13.23;11.67;;;;;;;21.47;71.56;99416.09;1742035;82;21046;-43
2022/06/30 01:51:56;;;;;;;13.80;12.40;;;;;;;21.49;71.58;99410.16;1741867;82;21003;-43
2022/06/30 01:54:23;;;;;;;17.12;15.00;;;;;;;21.50;71.68;99408.93;1741870;82;21316;-43
2022/06/30 01:56:51;;;;;;;16.27;14.58;;;;;;;21.51;71.67;99404.97;1741663;82;21086;-43
2022/06/30 01:59:18;;;;;;;15.78;14.15;;;;;;;21.50;71.75;99411.69;1741623;82;21019;-43
2022/06/30 02:01:46;;;;;;;16.37;14.68;;;;;;;21.50;71.70;99408.33;1741836;82;21055;-43
2022/06/30 02:06:58;;;;;;;16.80;15.10;;;;;;;21.57;71.68;99421.18;1741907;82;21214;-43
2022/06/30 02:10:51;;;;;;;16.40;14.70;;;;;;;21.62;71.56;99418.68;1775089;79;21744;-41
2022/06/30 02:13:19;;;;;;;17.77;15.83;;;;;;;21.54;71.62;99419.30;1746633;82;20990;-42
2022/06/30 02:15:46;;;;;;;16.40;14.68;;;;;;;21.54;71.62;99424.81;1746479;82;21242;-42
2022/06/30 02:18:13;;;;;;;17.35;14.78;;;;;;;21.56;71.52;99422.38;1746295;82;21510;-42
2022/06/30 02:20:40;;;;;;;16.12;14.60;;;;;;;21.58;71.45;99418.00;1746490;82;21246;-42
2022/06/30 02:23:08;;;;;;;17.05;15.30;;;;;;;21.59;71.38;99413.27;1746357;82;21220;-42
2022/06/30 02:25:35;;;;;;;16.35;14.75;;;;;;;21.59;71.34;99417.40;1746629;82;21014;-42
2022/06/30 02:28:05;;;;;;;15.65;14.13;;;;;;;21.58;71.27;99426.88;1746660;82;21215;-42
2022/06/30 02:30:33;;;;;;;16.12;14.58;;;;;;;21.61;71.23;99432.90;1746744;82;21529;-42
2022/06/30 02:33:01;;;;;;;17.10;15.50;;;;;;;21.64;71.15;99436.16;1746858;82;21675;-42
2022/06/30 02:35:29;;;;;;;17.37;15.72;;;;;;;21.63;71.13;99436.02;1746665;82;21018;-42
2022/06/30 02:37:57;;;;;;;17.80;15.93;;;;;;;21.62;71.07;99439.38;1746839;82;21007;-42
2022/06/30 02:40:26;;;;;;;16.87;15.28;;;;;;;21.61;71.07;99436.44;1746801;82;21158;-42
2022/06/30 02:42:55;;;;;;;16.40;14.80;;;;;;;21.58;71.04;99438.69;1746560;82;20892;-42
2022/06/30 02:45:22;;;;;;;17.10;15.50;;;;;;;21.62;71.02;99439.98;1746505;82;20943;-42
2022/06/30 02:47:49;;;;;;;17.30;15.60;;;;;;;21.67;70.96;99440.84;1746441;82;21119;-42
2022/06/30 02:50:16;;;;;;;19.95;16.45;;;;;;;21.66;70.90;99438.67;1746456;82;21101;-42
2022/06/30 02:52:44;;;;;;;17.90;16.00;;;;;;;21.64;71.03;99438.92;1746487;82;21219;-42
2022/06/30 02:55:11;;;;;;;16.95;15.30;;;;;;;21.66;71.02;99437.90;1746236;82;20939;-42
2022/06/30 02:57:38;;;;;;;18.05;15.63;;;;;;;21.69;70.91;99443.92;1746516;82;20971;-42
2022/06/30 03:00:09;;;;;;;17.52;15.72;;;;;;;21.75;70.80;99451.08;1746412;82;20947;-42
2022/06/30 03:02:36;;;;;;;17.30;15.50;;;;;;;21.77;70.76;99454.20;1746529;82;20943;-42
2022/06/30 03:05:07;;;;;;;19.45;16.55;;;;;;;21.78;70.84;99452.39;1746473;82;20904;-42
2022/06/30 03:07:34;;;;;;;18.48;15.43;;;;;;;21.79;70.68;99455.30;1746582;82;21014;-42
2022/06/30 03:10:02;;;;;;;16.40;14.70;;;;;;;21.79;70.58;99459.44;1739496;82;21027;-42
2022/06/30 03:12:31;;;;;;;16.90;15.40;;;;;;;21.81;70.58;99461.17;1733473;82;21094;-42
2022/06/30 03:14:58;;;;;;;18.25;16.45;;;;;;;21.88;70.60;99472.02;1733331;82;20935;-42
2022/06/30 03:17:25;;;;;;;17.87;16.07;;;;;;;21.91;70.52;99470.39;1733700;82;21518;-42
2022/06/30 03:19:53;;;;;;;19.15;17.12;;;;;;;21.93;70.51;99470.75;1733126;82;21007;-42
2022/06/30 03:22:20;;;;;;;17.15;15.53;;;;;;;21.94;70.48;99478.61;1732810;82;21016;-42
2022/06/30 03:24:47;;;;;;;16.55;14.85;;;;;;;21.94;70.45;99475.84;1732921;82;20933;-42
2022/06/30 03:27:15;;;;;;;16.85;15.15;;;;;;;22.01;70.49;99477.06;1732966;82;21039;-42
2022/06/30 03:29:42;;;;;;;17.23;15.60;;;;;;;22.08;70.39;99474.70;1732713;82;23125;-42
2022/06/30 03:32:09;;;;;;;18.30;16.30;;;;;;;22.10;70.36;99474.45;1732890;82;21534;-42
2022/06/30 03:34:36;;;;;;;17.40;15.55;;;;;;;22.10;70.24;99478.59;1732954;82;21043;-42
2022/06/30 03:37:05;;;;;;;16.97;15.25;;;;;;;22.10;70.24;99470.91;1732881;82;21087;-42
2022/06/30 03:39:32;;;;;;;17.40;13.90;;;;;;;22.13;70.30;99465.11;1732991;82;21064;-42
2022/06/30 03:42:00;;;;;;;15.25;13.75;;;;;;;22.17;70.27;99469.96;1732726;82;21898;-42
2022/06/30 03:44:27;;;;;;;15.65;14.13;;;;;;;22.22;70.13;99468.05;1732692;82;21008;-42
2022/06/30 03:46:55;;;;;;;16.12;14.55;;;;;;;22.24;70.09;99468.37;1732763;82;21002;-42
2022/06/30 03:49:22;;;;;;;18.42;14.63;;;;;;;22.25;70.24;99462.42;1732876;82;21616;-43
2022/06/30 03:51:49;;;;;;;14.07;12.78;;;;;;;22.28;70.34;99471.81;1732703;82;21040;-43
2022/06/30 03:54:19;;;;;;;15.00;13.50;;;;;;;22.33;70.18;99462.39;1732501;82;23121;-42
2022/06/30 03:56:46;;;;;;;14.05;12.75;;;;;;;22.37;70.13;99458.92;1732989;82;20976;-43
2022/06/30 03:59:13;;;;;;;14.75;13.25;;;;;;;22.38;70.17;99462.47;1732598;82;21079;-42
2022/06/30 04:01:40;;;;;;;13.30;11.90;;;;;;;22.40;70.16;99466.36;1732746;82;21003;-43
2022/06/30 04:04:07;;;;;;;13.60;12.25;;;;;;;22.45;70.12;99471.95;1732949;82;21004;-43
2022/06/30 04:06:35;;;;;;;13.83;12.37;;;;;;;22.48;70.01;99467.70;1732795;82;21250;-43
2022/06/30 04:09:02;;;;;;;12.85;11.60;;;;;;;22.52;69.80;99468.98;1732607;82;21134;-43
2022/06/30 04:11:29;;;;;;;12.43;11.25;;;;;;;22.51;69.58;99472.97;1754493;81;21015;-43
2022/06/30 04:13:57;;;;;;;12.55;11.28;;;;;;;22.53;69.67;99480.20;1754413;81;21090;-43
2022/06/30 04:16:24;;;;;;;16.82;11.22;;;;;;;22.53;69.56;99476.84;1754653;81;21062;-43
2022/06/30 04:18:51;;;;;;;12.85;11.55;;;;;;;22.59;69.69;99482.61;1754542;81;21200;-43
2022/06/30 04:21:18;;;;;;;13.08;11.78;;;;;;;22.65;69.80;99485.02;1754468;81;21081;-43
2022/06/30 04:23:45;;;;;;;12.30;10.93;;;;;;;22.72;69.75;99488.97;1774012;80;20961;-43
2022/06/30 04:26:12;;;;;;;11.70;10.45;;;;;;;22.79;69.59;99481.09;1777842;80;21016;-43
2022/06/30 04:28:39;;;;;;;12.45;11.33;;;;;;;22.83;69.28;99479.77;1782674;80;20929;-43
2022/06/30 04:33:52;;;;;;;11.35;9.65;;;;;;;22.95;69.25;99483.76;1782595;80;21033;-43
2022/06/30 04:36:20;;;;;;;14.30;10.25;;;;;;;22.99;69.20;99489.98;1782580;80;20998;-43
2022/06/30 04:38:47;;;;;;;10.72;9.65;;;;;;;23.03;68.73;99494.80;1782579;80;20972;-43
2022/06/30 04:41:23;;;;;;;10.63;9.60;;;;;;;23.05;68.67;99490.19;1782840;80;21526;-43
2022/06/30 04:43:56;;;;;;;11.83;9.48;;;;;;;23.07;68.55;99487.16;1782834;80;21571;-43
2022/06/30 04:46:23;;;;;;;10.08;9.03;;;;;;;23.13;68.37;99494.31;1782316;80;21047;-43
2022/06/30 04:48:50;;;;;;;10.30;8.90;;;;;;;23.19;68.44;99491.17;1782635;80;20956;-43
2022/06/30 04:51:17;;;;;;;10.35;9.20;;;;;;;23.28;68.45;99500.36;1782568;80;21336;-43
2022/06/30 04:53:45;;;;;;;11.03;10.00;;;;;;;23.36;68.07;99493.38;1782934;80;21029;-43
2022/06/30 04:56:12;;;;;;;9.70;8.73;;;;;;;23.44;67.62;99491.16;1782794;80;21256;-43
2022/06/30 04:58:41;;;;;;;9.60;8.70;;;;;;;23.47;67.70;99487.55;1782930;80;21507;-43
2022/06/30 05:01:08;;;;;;;10.10;8.28;;;;;;;23.50;67.39;99486.66;1782845;80;20977;-43
2022/06/30 05:03:35;;;;;;;9.58;8.58;;;;;;;23.58;66.88;99487.19;1783104;80;21527;-43
2022/06/30 05:06:03;;;;;;;11.30;9.20;;;;;;;23.70;66.91;99488.58;1782699;80;21057;-43
2022/06/30 05:08:30;;;;;;;9.60;8.58;;;;;;;23.77;66.70;99496.63;1782893;80;21788;-43
2022/06/30 05:10:57;;;;;;;9.43;8.53;;;;;;;23.83;66.57;99493.47;1777027;80;21523;-43
2022/06/30 05:13:25;;;;;;;9.48;8.53;;;;;;;23.87;66.74;99490.58;1774241;80;20921;-43
2022/06/30 05:15:52;;;;;;;8.98;7.90;;;;;;;23.92;65.89;99496.94;1774488;80;21021;-43
2022/06/30 05:18:20;;;;;;;8.50;7.62;;;;;;;23.98;65.39;99495.77;1774186;80;21010;-43
2022/06/30 05:20:47;;;;;;;8.48;7.47;;;;;;;24.05;65.20;99497.70;1774222;80;21772;-43
2022/06/30 05:23:14;;;;;;;8.50;7.60;;;;;;;24.12;65.33;99489.14;1774080;80;21523;-43
2022/06/30 05:28:26;;;;;;;8.83;8.03;;;;;;;24.29;64.84;99488.41;1774180;80;21639;-43
2022/06/30 05:30:55;;;;;;;8.25;7.45;;;;;;;24.35;65.05;99483.06;1774028;80;21002;-43
2022/06/30 05:33:23;;;;;;;8.25;7.33;;;;;;;24.39;64.37;99485.09;1774229;80;21231;-43
2022/06/30 05:35:52;;;;;;;8.68;7.35;;;;;;;24.48;64.07;99492.88;1774145;80;20973;-43
2022/06/30 05:38:20;;;;;;;8.53;7.30;;;;;;;24.57;63.23;99485.23;1774829;80;21004;-43
2022/06/30 05:40:47;;;;;;;8.50;7.53;;;;;;;24.62;62.96;99495.73;1774063;80;21012;-43
2022/06/30 05:43:15;;;;;;;8.33;7.53;;;;;;;24.68;63.23;99496.11;1773963;80;21480;-43
2022/06/30 05:45:45;;;;;;;8.78;7.45;;;;;;;24.74;62.61;99489.98;1774322;80;21191;-43
2022/06/30 05:48:12;;;;;;;8.83;7.62;;;;;;;24.77;62.70;99493.22;1774159;80;21642;-43
2022/06/30 05:50:39;;;;;;;10.08;7.85;;;;;;;24.78;62.15;99492.00;1774053;80;20981;-43
2022/06/30 05:53:07;;;;;;;7.90;7.22;;;;;;;24.78;61.68;99500.33;1774138;80;21497;-43
2022/06/30 05:55:34;;;;;;;7.83;7.22;;;;;;;24.76;61.64;99497.22;1747824;80;21076;-43
2022/06/30 05:58:02;;;;;;;7.78;7.03;;;;;;;24.77;61.29;99493.22;1745871;82;21520;-43
2022/06/30 06:00:32;;;;;;;8.53;7.15;;;;;;;24.83;61.39;99496.97;1746059;82;21047;-43
2022/06/30 06:02:59;;;;;;;9.20;7.10;;;;;;;24.91;61.72;99492.72;1746342;82;21519;-43
2022/06/30 06:05:27;;;;;;;8.65;6.90;;;;;;;24.97;61.58;99493.08;1745902;82;21013;-43
2022/06/30 06:07:54;;;;;;;7.85;7.12;;;;;;;25.05;61.19;99492.96;1745832;82;20938;-43
2022/06/30 06:10:22;;;;;;;7.87;7.03;;;;;;;25.16;61.26;99495.95;1749987;81;21005;-43
2022/06/30 06:12:51;;;;;;;8.05;7.25;;;;;;;25.23;60.47;99491.50;1761972;81;21500;-43
2022/06/30 06:15:18;;;;;;;7.97;7.28;;;;;;;25.28;60.50;99481.97;1762224;81;21022;-43
2022/06/30 06:17:47;;;;;;;7.47;6.78;;;;;;;25.34;60.89;99485.70;1762160;81;21085;-43
2022/06/30 06:20:16;;;;;;;7.97;7.17;;;;;;;25.40;60.84;99485.88;1762296;81;21324;-43
2022/06/30 06:22:44;;;;;;;7.87;7.05;;;;;;;25.46;60.54;99495.91;1762521;81;21186;-43
2022/06/30 06:25:12;;;;;;;7.55;6.70;;;;;;;25.50;59.74;99494.41;1762042;81;20950;-43
2022/06/30 06:27:40;;;;;;;7.72;7.03;;;;;;;25.52;59.57;99492.70;1762039;81;20994;-42
2022/06/30 06:30:10;;;;;;;7.03;6.33;;;;;;;25.59;59.38;99493.07;1762207;81;20966;-42
2022/06/30 06:32:38;;;;;;;7.25;6.60;;;;;;;25.62;58.34;99494.14;1762399;81;21057;-42
2022/06/30 06:35:07;;;;;;;7.47;6.30;;;;;;;25.63;58.25;99499.86;1762103;81;21242;-42
2022/06/30 06:37:34;;;;;;;7.65;6.83;;;;;;;25.66;57.50;99501.73;1762259;81;20954;-42
2022/06/30 06:40:01;;;;;;;7.05;6.35;;;;;;;25.72;57.35;99499.88;1762110;81;20998;-42
2022/06/30 06:42:29;;;;;;;6.87;5.95;;;;;;;25.77;56.84;99498.67;1762124;81;20934;-43
2022/06/30 06:44:56;;;;;;;7.10;6.30;;;;;;;25.85;57.08;99494.36;1761950;81;20998;-42
2022/06/30 06:47:24;;;;;;;7.33;6.60;;;;;;;25.94;57.18;99495.02;1761958;81;23154;-42
2022/06/30 06:49:52;;;;;;;6.72;6.12;;;;;;;25.99;57.06;99490.23;1762319;81;20938;-42
2022/06/30 06:52:19;;;;;;;6.72;6.12;;;;;;;26.07;56.70;99492.86;1762263;81;21081;-42
2022/06/30 06:54:45;;;;;;;6.62;6.03;;;;;;;26.15;56.11;99491.31;1762325;81;21045;-42
2022/06/30 06:57:12;;;;;;;7.35;6.65;;;;;;;26.25;55.92;99494.91;1762146;81;20994;-42
2022/06/30 06:59:40;;;;;;;7.60;6.90;;;;;;;26.34;56.27;99487.95;1762247;81;23148;-42
2022/06/30 07:02:07;;;;;;;7.00;6.40;;;;;;;26.42;56.07;99487.82;1762277;81;21498;-42
2022/06/30 07:04:35;;;;;;;6.42;5.70;;;;;;;26.47;56.46;99483.64;1762504;81;20946;-42
2022/06/30 07:07:03;;;;;;;7.70;7.00;;;;;;;26.53;55.37;99483.93;1762309;81;21578;-43
2022/06/30 07:09:31;;;;;;;7.80;7.00;;;;;;;26.63;55.71;99483.30;1762753;81;21025;-43
2022/06/30 07:11:58;;;;;;;7.03;6.37;;;;;;;26.67;55.45;99483.94;1762369;81;21197;-43
2022/06/30 07:14:26;;;;;;;7.03;6.33;;;;;;;26.73;55.23;99483.45;1762280;81;21491;-43
2022/06/30 07:16:53;;;;;;;7.47;6.78;;;;;;;26.78;55.55;99484.21;1762300;81;21299;-43
2022/06/30 07:19:20;;;;;;;7.10;6.40;;;;;;;26.82;55.27;99484.81;1762440;81;21108;-43
2022/06/30 07:21:47;;;;;;;7.15;6.45;;;;;;;26.91;54.66;99482.69;1762477;81;21076;-43
2022/06/30 07:24:15;;;;;;;8.48;6.87;;;;;;;26.96;54.81;99479.27;1762446;81;21250;-43
2022/06/30 07:26:42;;;;;;;6.92;6.33;;;;;;;27.02;54.97;99475.98;1762446;81;21077;-43
2022/06/30 07:29:09;;;;;;;7.08;6.42;;;;;;;27.12;54.37;99474.72;1762369;81;20927;-43
2022/06/30 07:31:36;;;;;;;6.67;6.08;;;;;;;27.21;54.11;99469.89;1762418;81;20966;-43
2022/06/30 07:34:03;;;;;;;7.33;6.62;;;;;;;27.27;53.89;99469.26;1762448;81;21097;-43
2022/06/30 07:36:30;;;;;;;7.00;6.25;;;;;;;27.32;52.97;99471.41;1762350;81;21276;-43
2022/06/30 07:38:57;;;;;;;7.28;6.58;;;;;;;27.34;53.12;99475.27;1762004;81;21516;-43
2022/06/30 07:41:24;;;;;;;7.10;6.25;;;;;;;27.39;53.33;99472.47;1762146;81;20926;-43
2022/06/30 07:43:51;;;;;;;8.80;6.33;;;;;;;27.41;53.29;99474.92;1762517;81;21772;-43
2022/06/30 07:46:19;;;;;;;6.90;6.20;;;;;;;27.44;52.86;99477.39;1762142;81;21039;-43
2022/06/30 07:48:47;;;;;;;7.33;6.58;;;;;;;27.49;53.33;99486.53;1762317;81;21942;-43
2022/06/30 07:51:16;;;;;;;7.45;6.53;;;;;;;27.54;53.20;99483.10;1762675;81;21448;-43
2022/06/30 07:53:44;;;;;;;6.78;6.17;;;;;;;27.59;52.43;99488.77;1762271;81;21484;-43
2022/06/30 07:56:11;;;;;;;6.67;6.03;;;;;;;27.64;52.24;99487.39;1762122;81;20926;-43
2022/06/30 07:58:38;;;;;;;7.20;6.35;;;;;;;27.66;52.77;99487.05;1762259;81;21038;-43
2022/06/30 08:01:05;;;;;;;6.97;5.85;;;;;;;27.72;53.07;99488.56;1762017;81;23154;-43
2022/06/30 08:03:33;;;;;;;5.78;5.28;;;;;;;27.79;52.49;99496.56;1762166;81;21017;-43
2022/06/30 08:06:01;;;;;;;8.03;5.80;;;;;;;27.88;52.06;99490.19;1762220;81;20935;-42
2022/06/30 08:08:29;;;;;;;6.10;5.00;;;;;;;27.97;51.25;99492.91;1762201;81;20965;-42
2022/06/30 08:10:56;;;;;;;6.05;4.78;;;;;;;28.06;50.07;99497.80;1760172;81;21129;-42
2022/06/30 08:13:24;;;;;;;10.23;5.17;;;;;;;28.12;49.38;99498.57;1748476;80;21138;-42
2022/06/30 08:15:52;;;;;;;5.97;5.40;;;;;;;28.18;49.61;99497.42;1748530;81;21586;-43
2022/06/30 08:18:20;;;;;;;5.65;5.10;;;;;;;28.23;49.71;99495.98;1748497;82;21013;-43
2022/06/30 08:20:48;;;;;;;5.65;4.72;;;;;;;28.28;49.63;99493.31;1748613;82;21029;-43
2022/06/30 08:23:15;;;;;;;6.70;5.80;;;;;;;28.39;50.10;99489.98;1748618;82;21456;-43
2022/06/30 08:25:42;;;;;;;5.95;5.40;;;;;;;28.56;48.88;99490.31;1748471;82;21166;-43
2022/06/30 08:28:09;;;;;;;5.95;5.45;;;;;;;28.64;49.62;99492.23;1748398;81;20933;-43
2022/06/30 08:30:36;;;;;;;5.42;5.03;;;;;;;28.76;48.67;99491.20;1748526;82;21555;-43
2022/06/30 08:33:03;;;;;;;8.80;5.62;;;;;;;28.90;48.29;99490.44;1748439;81;20933;-43
2022/06/30 08:35:32;;;;;;;6.08;5.55;;;;;;;29.02;47.82;99490.02;1748837;82;21029;-43
2022/06/30 08:37:58;;;;;;;7.00;5.12;;;;;;;29.06;46.94;99489.19;1748472;82;21144;-43
2022/06/30 08:43:11;;;;;;;6.42;5.83;;;;;;;29.11;48.89;99486.34;1725285;82;21019;-43
2022/06/30 08:45:39;;;;;;;6.00;5.10;;;;;;;29.25;47.65;99484.94;1748450;82;21076;-43
2022/06/30 08:48:06;;;;;;;6.45;5.50;;;;;;;29.33;47.33;99479.14;1748329;82;20966;-42
2022/06/30 08:50:33;;;;;;;6.45;5.70;;;;;;;29.42;46.95;99481.67;1697397;82;21251;-42
2022/06/30 08:53:02;;;;;;;6.53;5.00;;;;;;;29.41;45.77;99478.11;1721034;82;21053;-42
2022/06/30 08:55:31;;;;;;;5.83;4.83;;;;;;;29.35;46.74;99484.23;1748973;81;20953;-43
2022/06/30 08:58:04;;;;;;;5.83;5.30;;;;;;;29.38;47.07;99476.30;1748780;82;21485;-42
2022/06/30 09:00:33;;;;;;;5.37;4.87;;;;;;;29.45;48.13;99478.67;1724340;81;21047;-42
2022/06/30 09:03:02;;;;;;;5.00;4.60;;;;;;;29.55;47.64;99473.73;1718599;83;21178;-42
2022/06/30 09:05:29;;;;;;;4.92;4.42;;;;;;;29.68;47.44;99470.74;1718997;83;20951;-43
2022/06/30 09:07:56;;;;;;;5.37;4.83;;;;;;;29.86;45.90;99467.56;1718676;83;21071;-43
2022/06/30 09:10:25;;;;;;;6.87;5.17;;;;;;;30.04;45.55;99470.10;1718720;83;21573;-42
2022/06/30 09:13:04;;;;;;;7.83;5.25;;;;;;;30.18;45.33;99465.83;1717173;83;21086;-42
2022/06/30 09:15:34;;;;;;;5.42;4.87;;;;;;;30.34;45.50;99465.12;1716245;83;21946;-42
2022/06/30 09:18:01;;;;;;;6.10;5.50;;;;;;;30.44;45.63;99467.27;1695885;83;20928;-42
2022/06/30 09:20:39;;;;;;;6.75;5.00;;;;;;;30.51;45.07;99466.08;1716465;83;21604;-43
2022/06/30 09:23:29;;;;;;;5.92;5.42;;;;;;;30.53;44.56;99467.14;1716484;83;21048;-42
2022/06/30 09:26:01;;;;;;;6.67;5.00;;;;;;;30.52;43.60;99464.83;1716337;83;21002;-42
2022/06/30 09:28:55;;;;;;;6.00;5.33;;;;;;;30.37;44.06;99464.89;1716320;83;21589;-42
2022/06/30 09:31:35;;;;;;;5.60;5.00;;;;;;;30.16;44.92;99459.20;1716112;83;21486;-42
2022/06/30 09:34:16;;;;;;;5.30;4.80;;;;;;;29.94;45.73;99462.48;1716213;83;21003;-42
2022/06/30 09:36:42;;;;;;;5.60;4.58;;;;;;;29.90;45.42;99461.16;1714051;83;21031;-42
2022/06/30 09:39:13;;;;;;;5.83;4.85;;;;;;;29.91;46.17;99457.88;1715998;83;21494;-42
2022/06/30 09:41:41;;;;;;;5.17;4.70;;;;;;;30.06;45.58;99450.82;1716412;83;21068;-42
2022/06/30 09:44:20;;;;;;;5.75;5.15;;;;;;;30.23;45.03;99457.36;1716195;83;21553;-42
2022/06/30 09:47:00;;;;;;;7.05;5.30;;;;;;;30.33;44.76;99456.58;1711528;83;20907;-42
2022/06/30 09:49:41;;;;;;;5.50;5.00;;;;;;;30.34;44.68;99458.89;1716245;83;20932;-42
2022/06/30 09:52:26;;;;;;;5.35;4.85;;;;;;;30.39;44.84;99451.20;1716041;83;21023;-42
2022/06/30 09:55:00;;;;;;;6.00;4.90;;;;;;;30.48;43.92;99460.08;1716043;83;23151;-42
2022/06/30 09:57:32;;;;;;;5.40;4.92;;;;;;;30.46;44.37;99452.80;1716367;83;20972;-42
2022/06/30 10:00:07;;;;;;;5.60;5.10;;;;;;;30.43;43.85;99453.77;1715960;83;20936;-42
2022/06/30 10:02:41;;;;;;;5.17;4.75;;;;;;;30.29;44.30;99446.24;1716139;83;26004;-42
2022/06/30 10:05:09;;;;;;;5.30;4.80;;;;;;;30.15;43.85;99452.07;1715983;83;21019;-42
2022/06/30 10:07:37;;;;;;;5.50;4.95;;;;;;;30.05;43.35;99447.25;1716653;83;21268;-42
2022/06/30 10:10:12;;;;;;;5.93;5.40;;;;;;;29.94;43.92;99447.11;1716281;83;20920;-42
2022/06/30 10:12:40;;;;;;;5.55;5.08;;;;;;;29.88;44.75;99449.66;1711482;83;20951;-42
2022/06/30 10:15:08;;;;;;;5.42;4.92;;;;;;;29.86;44.17;99443.80;1705743;84;21054;-42
2022/06/30 10:17:53;;;;;;;5.72;5.22;;;;;;;29.76;43.74;99442.55;1706138;84;21024;-42
2022/06/30 10:20:21;;;;;;;5.40;5.00;;;;;;;29.69;44.95;99440.16;1705790;84;21110;-42
2022/06/30 10:22:48;;;;;;;5.17;4.67;;;;;;;29.83;46.03;99442.73;1705859;84;21043;-42
2022/06/30 10:25:17;;;;;;;4.75;4.35;;;;;;;30.12;44.37;99437.66;1705830;84;21108;-42
2022/06/30 10:27:45;;;;;;;5.10;4.60;;;;;;;30.44;42.77;99446.29;1705974;84;21074;-43
2022/06/30 10:30:17;;;;;;;5.17;4.67;;;;;;;30.77;41.91;99446.49;1705903;84;21648;-43
2022/06/30 10:32:55;;;;;;;4.75;4.35;;;;;;;31.10;40.87;99445.40;1706158;84;21109;-43
2022/06/30 10:35:40;;;;;;;4.42;4.03;;;;;;;31.41;40.45;99450.98;1710489;82;20985;-43
2022/06/30 10:38:30;;;;;;;5.87;4.60;;;;;;;31.68;40.22;99444.64;1714321;83;22197;-42
2022/06/30 10:41:14;;;;;;;4.95;4.50;;;;;;;31.84;40.08;99435.55;1714432;83;21115;-42
2022/06/30 10:44:08;;;;;;;4.67;4.25;;;;;;;31.86;39.18;99437.20;1714757;83;21103;-42
2022/06/30 10:46:36;;;;;;;5.10;4.60;;;;;;;31.82;39.09;99439.48;1714771;83;21150;-42
2022/06/30 10:49:09;;;;;;;5.28;4.78;;;;;;;31.77;39.23;99444.44;1714995;83;21028;-42
2022/06/30 10:51:36;;;;;;;6.75;4.60;;;;;;;31.73;39.22;99439.70;1714073;83;20977;-42
2022/06/30 10:54:04;;;;;;;5.40;4.75;;;;;;;31.62;39.83;99437.61;1714577;83;21064;-42
2022/06/30 10:56:59;;;;;;;4.80;4.40;;;;;;;31.51;39.58;99443.14;1714694;83;21095;-42
2022/06/30 10:59:39;;;;;;;5.20;4.50;;;;;;;31.41;39.74;99441.17;1713793;83;21158;-42
2022/06/30 11:02:15;;;;;;;5.10;4.60;;;;;;;31.39;39.91;99445.09;1714400;83;21004;-42
2022/06/30 11:04:48;;;;;;;4.78;4.37;;;;;;;31.44;38.99;99442.96;1714393;83;21048;-42
2022/06/30 11:07:24;;;;;;;5.12;4.40;;;;;;;31.60;39.17;99433.78;1714234;83;21081;-42
2022/06/30 11:09:57;;;;;;;4.70;4.30;;;;;;;31.83;38.87;99435.42;1714676;83;21002;-43
2022/06/30 11:12:38;;;;;;;4.25;3.95;;;;;;;32.22;37.92;99434.95;1717516;82;21243;-43
2022/06/30 11:15:05;;;;;;;4.55;4.15;;;;;;;32.62;38.12;99438.61;1731811;82;21547;-42
2022/06/30 11:17:37;;;;;;;5.60;4.13;;;;;;;33.05;37.62;99441.33;1732198;82;21013;-43
2022/06/30 11:20:13;;;;;;;4.53;4.10;;;;;;;33.38;36.41;99435.56;1732152;82;20961;-43
2022/06/30 11:22:41;;;;;;;4.90;4.20;;;;;;;33.56;35.39;99441.39;1732002;82;21069;-42
2022/06/30 11:27:17;;;;;;;4.50;4.10;;;;;;;33.66;34.89;99437.66;1732052;82;21561;-43
2022/06/30 11:27:44;;;;;;;4.75;4.25;;;;;;;33.59;34.74;99440.38;1728301;82;21479;-43
2022/06/30 11:30:12;;;;;;;4.60;4.05;;;;;;;33.42;34.89;99436.83;1731862;82;21017;-43
2022/06/30 11:32:39;;;;;;;3.98;3.65;;;;;;;33.30;35.39;99434.56;1731911;82;21085;-43
2022/06/30 11:35:08;;;;;;;4.95;4.55;;;;;;;33.29;35.55;99436.61;1731957;82;21066;-43
2022/06/30 11:37:36;;;;;;;5.00;4.25;;;;;;;33.38;35.60;99429.95;1732054;82;21111;-43
2022/06/30 11:40:06;;;;;;;4.62;4.22;;;;;;;33.61;35.53;99430.00;1731860;82;20962;-43
2022/06/30 11:42:34;;;;;;;4.80;4.40;;;;;;;33.95;34.92;99424.41;1732131;82;21069;-43
2022/06/30 11:45:01;;;;;;;5.28;4.78;;;;;;;34.40;34.12;99420.74;1731879;82;20998;-43
2022/06/30 11:47:29;;;;;;;5.28;4.08;;;;;;;34.86;33.11;99417.08;1732039;82;21008;-43
2022/06/30 11:49:58;;;;;;;6.30;4.45;;;;;;;35.19;32.97;99420.30;1731857;82;21130;-43
2022/06/30 11:52:34;;;;;;;4.87;4.40;;;;;;;35.37;31.58;99420.23;1731838;82;20983;-43
2022/06/30 11:55:14;;;;;;;4.95;4.47;;;;;;;35.36;32.23;99415.88;1731947;82;20973;-42